createdAt,value
2018-07-11T00:00:46.351Z,5.03
2018-07-11T00:03:27.076Z,4.77
2018-07-11T00:06:03.013Z,4.30
2018-07-11T00:08:39.368Z,4.47
2018-07-11T00:11:15.515Z,4.17
2018-07-11T00:13:52.219Z,4.43
2018-07-11T00:16:28.808Z,4.40
2018-07-11T00:19:04.844Z,4.47
2018-07-11T00:21:40.875Z,3.97
2018-07-11T00:24:17.928Z,4.50
2018-07-11T00:26:55.333Z,4.30
2018-07-11T00:29:31.557Z,3.77
2018-07-11T00:32:07.787Z,4.30
2018-07-11T00:34:43.879Z,4.20
2018-07-11T00:37:20.174Z,5.03
2018-07-11T00:39:56.461Z,5.20
2018-07-11T00:42:32.596Z,4.77
2018-07-11T00:45:08.723Z,4.20
2018-07-11T00:47:44.784Z,4.67
2018-07-11T00:50:20.894Z,4.70
2018-07-11T00:52:58.039Z,4.37
2018-07-11T00:55:35.740Z,4.20
2018-07-11T00:58:23.835Z,4.17
2018-07-11T01:01:12.290Z,4.37
2018-07-11T01:03:53.563Z,4.70
2018-07-11T01:06:29.460Z,4.20
2018-07-11T01:09:05.524Z,4.60
2018-07-11T01:11:42.418Z,4.73
2018-07-11T01:14:18.723Z,4.60
2018-07-11T01:16:54.789Z,4.40
2018-07-11T01:19:31.066Z,4.90
2018-07-11T01:22:07.055Z,4.57
2018-07-11T01:24:43.152Z,4.93
2018-07-11T01:27:19.239Z,5.07
2018-07-11T01:29:55.367Z,5.60
2018-07-11T01:32:31.080Z,4.93
2018-07-11T01:35:07.158Z,5.13
2018-07-11T01:37:43.405Z,4.90
2018-07-11T01:40:19.405Z,5.17
2018-07-11T01:42:55.314Z,4.77
2018-07-11T01:45:31.269Z,5.20
2018-07-11T01:48:07.471Z,5.03
2018-07-11T01:50:43.895Z,5.07
2018-07-11T01:53:20.239Z,5.30
2018-07-11T01:55:56.897Z,4.83
2018-07-11T01:58:32.847Z,6.37
2018-07-11T02:01:09.023Z,4.90
2018-07-11T02:03:45.459Z,5.30
2018-07-11T02:06:22.956Z,5.13
2018-07-11T02:08:58.947Z,5.03
2018-07-11T02:11:35.031Z,4.73
2018-07-11T02:14:11.939Z,5.13
2018-07-11T02:16:49.023Z,5.80
2018-07-11T02:19:25.514Z,5.10
2018-07-11T02:22:01.419Z,5.03
2018-07-11T02:24:37.870Z,4.97
2018-07-11T02:27:13.814Z,5.53
2018-07-11T02:29:50.052Z,4.90
2018-07-11T02:32:26.374Z,5.30
2018-07-11T02:35:02.406Z,4.63
2018-07-11T02:37:38.255Z,5.60
2018-07-11T02:40:14.039Z,5.47
2018-07-11T02:42:49.995Z,5.37
2018-07-11T02:45:26.051Z,5.40
2018-07-11T02:48:02.150Z,5.23
2018-07-11T02:50:38.079Z,6.67
2018-07-11T02:53:19.297Z,5.30
2018-07-11T02:55:55.177Z,4.77
2018-07-11T02:58:31.065Z,4.90
2018-07-11T03:01:07.221Z,4.77
2018-07-11T03:03:43.398Z,4.93
2018-07-11T03:06:19.258Z,4.93
2018-07-11T03:08:55.325Z,5.23
2018-07-11T03:11:31.277Z,5.60
2018-07-11T03:14:07.211Z,5.00
2018-07-11T03:16:43.004Z,5.90
2018-07-11T03:19:19.165Z,5.80
2018-07-11T03:21:55.559Z,5.57
2018-07-11T03:24:31.780Z,5.63
2018-07-11T03:27:08.559Z,5.30
2018-07-11T03:29:44.528Z,5.50
2018-07-11T03:32:20.791Z,5.10
2018-07-11T03:34:57.054Z,5.30
2018-07-11T03:37:34.378Z,5.30
2018-07-11T03:40:11.169Z,5.50
2018-07-11T03:42:47.158Z,6.07
2018-07-11T03:45:23.226Z,5.60
2018-07-11T03:48:01.441Z,5.27
2018-07-11T03:50:38.645Z,6.20
2018-07-11T03:53:14.833Z,5.83
2018-07-11T03:55:50.952Z,6.17
2018-07-11T03:58:26.892Z,7.63
2018-07-11T04:01:03.016Z,6.53
2018-07-11T04:03:40.714Z,6.57
2018-07-11T04:06:16.989Z,7.57
2018-07-11T04:08:53.078Z,6.50
2018-07-11T04:11:29.176Z,7.40
2018-07-11T04:14:05.468Z,7.53
2018-07-11T04:16:41.888Z,7.63
2018-07-11T04:19:17.965Z,7.13
2018-07-11T04:21:53.879Z,8.87
2018-07-11T04:24:30.020Z,5.87
2018-07-11T04:27:06.230Z,6.03
2018-07-11T04:29:42.919Z,5.00
2018-07-11T04:32:19.014Z,6.73
2018-07-11T04:34:55.350Z,6.37
2018-07-11T04:37:31.494Z,6.33
2018-07-11T04:40:08.088Z,6.33
2018-07-11T04:42:44.711Z,6.33
2018-07-11T04:45:21.257Z,6.23
2018-07-11T04:47:57.298Z,5.73
2018-07-11T04:50:33.879Z,5.63
2018-07-11T04:53:11.433Z,5.70
2018-07-11T04:55:47.817Z,5.87
2018-07-11T04:58:25.358Z,5.60
2018-07-11T05:01:01.340Z,5.20
2018-07-11T05:03:38.156Z,5.43
2018-07-11T05:06:14.753Z,5.60
2018-07-11T05:08:50.842Z,5.10
2018-07-11T05:11:28.357Z,5.10
2018-07-11T05:14:04.415Z,5.43
2018-07-11T05:16:40.434Z,5.10
2018-07-11T05:19:16.323Z,4.57
2018-07-11T05:21:55.112Z,5.07
2018-07-11T05:24:33.722Z,5.30
2018-07-11T05:27:10.033Z,5.00
2018-07-11T05:29:47.304Z,5.03
2018-07-11T05:32:24.236Z,5.10
2018-07-11T05:35:00.272Z,5.50
2018-07-11T05:37:36.009Z,5.17
2018-07-11T05:40:15.934Z,5.63
2018-07-11T05:42:55.269Z,5.20
2018-07-11T05:45:34.874Z,5.80
2018-07-11T05:48:13.641Z,5.73
2018-07-11T05:50:49.979Z,5.47
2018-07-11T05:53:26.283Z,5.67
2018-07-11T05:56:02.587Z,5.27
2018-07-11T05:58:38.873Z,5.43
2018-07-11T06:01:19.850Z,5.73
2018-07-11T06:03:58.213Z,5.53
2018-07-11T06:06:39.371Z,5.87
2018-07-11T06:09:20.477Z,5.57
2018-07-11T06:11:58.953Z,5.33
2018-07-11T06:14:37.669Z,5.37
2018-07-11T06:17:13.945Z,5.57
2018-07-11T06:19:50.079Z,5.40
2018-07-11T06:22:26.478Z,5.13
2018-07-11T06:25:02.377Z,5.60
2018-07-11T06:27:41.450Z,5.37
2018-07-11T06:30:20.027Z,5.40
2018-07-11T06:32:56.945Z,5.07
2018-07-11T06:35:35.845Z,5.37
2018-07-11T06:38:11.946Z,5.40
2018-07-11T06:40:47.869Z,5.23
2018-07-11T06:43:27.375Z,5.00
2018-07-11T06:46:03.965Z,4.50
2018-07-11T06:48:42.397Z,4.90
2018-07-11T06:51:20.968Z,4.77
2018-07-11T06:53:57.244Z,4.83
2018-07-11T06:56:33.359Z,5.27
2018-07-11T06:59:10.696Z,4.97
2018-07-11T07:01:46.990Z,5.23
2018-07-11T07:04:26.312Z,4.83
2018-07-11T07:07:05.655Z,4.90
2018-07-11T07:09:46.550Z,4.90
2018-07-11T07:12:25.304Z,5.07
2018-07-11T07:15:04.343Z,4.90
2018-07-11T07:17:45.356Z,4.83
2018-07-11T07:20:21.911Z,4.47
2018-07-11T07:23:05.871Z,5.60
2018-07-11T07:25:42.287Z,5.30
2018-07-11T07:28:21.290Z,6.10
2018-07-11T07:30:57.630Z,5.23
2018-07-11T07:33:33.734Z,6.33
2018-07-11T07:36:12.776Z,5.40
2018-07-11T07:38:49.873Z,5.87
2018-07-11T07:41:30.058Z,6.13
2018-07-11T07:44:12.532Z,6.33
2018-07-11T07:46:56.677Z,7.33
2018-07-11T07:49:34.160Z,6.67
2018-07-11T07:52:15.154Z,6.07
2018-07-11T07:54:52.978Z,6.87
2018-07-11T07:57:34.352Z,7.37
2018-07-11T08:00:14.465Z,7.87
2018-07-11T08:02:55.468Z,7.00
2018-07-11T08:05:33.622Z,7.23
2018-07-11T08:08:12.333Z,7.90
2018-07-11T08:10:53.117Z,7.87
2018-07-11T08:13:32.236Z,7.10
2018-07-11T08:16:11.327Z,7.40
2018-07-11T08:18:47.802Z,7.33
2018-07-11T08:21:24.031Z,8.50
2018-07-11T08:24:14.754Z,7.13
2018-07-11T08:27:01.950Z,7.17
2018-07-11T08:29:56.022Z,7.30
2018-07-11T08:34:48.522Z,7.17
2018-07-11T08:50:22.678Z,7.47
2018-07-11T08:53:16.430Z,5.40
2018-07-11T08:57:16.640Z,5.50
2018-07-11T09:00:08.219Z,5.00
2018-07-11T09:03:59.260Z,6.03
2018-07-11T09:06:51.583Z,4.90
2018-07-11T09:09:39.641Z,5.43
2018-07-11T09:12:28.775Z,5.27
2018-07-11T09:28:04.383Z,5.13
2018-07-11T09:30:44.425Z,4.70
2018-07-11T09:33:22.004Z,5.13
2018-07-11T09:36:06.212Z,4.70
2018-07-11T09:38:43.885Z,4.47
2018-07-11T09:41:26.894Z,4.40
2018-07-11T09:44:08.195Z,4.43
2018-07-11T09:46:46.642Z,4.50
2018-07-11T09:49:27.745Z,5.00
2018-07-11T09:52:06.475Z,4.80
2018-07-11T09:54:48.136Z,4.57
2018-07-11T09:57:28.288Z,4.83
2018-07-11T10:00:07.164Z,4.40
2018-07-11T10:02:47.585Z,4.40
2018-07-11T10:05:27.526Z,4.03
2018-07-11T10:08:11.444Z,3.47
2018-07-11T10:10:51.131Z,3.07
2018-07-11T10:13:29.094Z,3.07
2018-07-11T10:16:09.315Z,3.63
2018-07-11T10:19:00.898Z,3.40
2018-07-11T10:21:41.326Z,3.77
2018-07-11T10:24:21.598Z,3.80
2018-07-11T10:27:01.777Z,3.73
2018-07-11T10:29:38.049Z,3.80
2018-07-11T10:32:14.359Z,3.33
2018-07-11T10:34:52.028Z,3.57
2018-07-11T10:37:32.490Z,3.80
2018-07-11T10:40:14.099Z,3.63
2018-07-11T10:42:53.630Z,3.73
2018-07-11T10:45:34.108Z,4.27
2018-07-11T10:48:21.059Z,3.70
2018-07-11T10:51:08.606Z,3.37
2018-07-11T10:53:57.433Z,3.47
2018-07-11T10:59:39.395Z,3.70
2018-07-11T11:02:20.823Z,4.20
2018-07-11T11:04:59.014Z,4.10
2018-07-11T11:07:38.686Z,3.93
2018-07-11T11:10:14.742Z,3.80
2018-07-11T11:12:54.510Z,3.40
2018-07-11T11:15:36.134Z,3.60
2018-07-11T11:18:19.035Z,3.50
2018-07-11T11:20:57.997Z,3.80
2018-07-11T11:24:05.488Z,3.93
2018-07-11T11:26:55.919Z,3.57
2018-07-11T11:29:37.980Z,3.50
2018-07-11T11:32:18.045Z,3.27
2018-07-11T11:34:58.056Z,3.30
2018-07-11T11:37:37.431Z,3.93
2018-07-11T11:40:18.291Z,4.20
2018-07-11T11:42:58.149Z,4.10
2018-07-11T11:45:40.635Z,4.40
2018-07-11T11:48:21.975Z,5.13
2018-07-11T11:51:00.375Z,4.57
2018-07-11T11:53:39.631Z,4.10
2018-07-11T11:56:21.713Z,3.90
2018-07-11T11:59:01.100Z,3.70
2018-07-11T12:01:47.062Z,3.80
2018-07-11T12:04:25.534Z,3.47
2018-07-11T12:07:02.639Z,3.93
2018-07-11T12:09:45.513Z,3.50
2018-07-11T12:12:22.262Z,3.63
2018-07-11T12:15:02.038Z,3.80
2018-07-11T12:17:43.371Z,3.43
2018-07-11T12:20:22.938Z,3.00
2018-07-11T12:23:03.101Z,3.10
2018-07-11T12:25:49.314Z,3.87
2018-07-11T12:28:26.758Z,3.93
2018-07-11T12:31:04.876Z,3.93
2018-07-11T12:33:45.441Z,3.77
2018-07-11T12:36:25.367Z,3.80
2018-07-11T12:39:06.666Z,3.33
2018-07-11T12:41:47.334Z,3.50
2018-07-11T12:44:32.589Z,3.00
2018-07-11T12:47:13.927Z,3.50
2018-07-11T12:49:50.224Z,3.63
2018-07-11T12:52:29.981Z,3.83
2018-07-11T12:55:07.753Z,3.80
2018-07-11T12:57:48.672Z,3.73
2018-07-11T13:00:31.367Z,4.20
2018-07-11T13:03:09.441Z,3.83
2018-07-11T13:05:49.604Z,3.70
2018-07-11T13:08:31.817Z,4.30
2018-07-11T13:11:09.355Z,4.50
2018-07-11T13:13:48.528Z,4.47
2018-07-11T13:16:30.681Z,4.30
2018-07-11T13:19:12.830Z,4.70
2018-07-11T13:21:50.283Z,3.93
2018-07-11T13:24:32.923Z,4.20
2018-07-11T13:27:11.957Z,4.90
2018-07-11T13:29:51.436Z,4.30
2018-07-11T13:32:32.730Z,4.47
2018-07-11T13:35:12.497Z,4.70
2018-07-11T13:37:51.427Z,3.87
2018-07-11T13:40:31.658Z,4.17
2018-07-11T13:43:10.867Z,3.93
2018-07-11T13:45:51.032Z,4.73
2018-07-11T13:48:30.135Z,4.23
2018-07-11T13:53:52.780Z,5.13
2018-07-11T13:56:35.287Z,5.80
2018-07-11T13:59:17.157Z,5.53
2018-07-11T14:01:56.678Z,4.90
2018-07-11T14:04:37.295Z,5.53
2018-07-11T14:07:16.351Z,4.50
2018-07-11T14:09:55.633Z,4.60
2018-07-11T14:12:35.167Z,5.77
2018-07-11T14:15:17.700Z,5.90
2018-07-11T14:17:56.550Z,5.90
2018-07-11T14:20:35.989Z,6.80
2018-07-11T14:23:18.509Z,4.90
2018-07-11T14:25:58.041Z,4.83
2018-07-11T14:28:37.657Z,4.77
2018-07-11T14:31:16.573Z,4.40
2018-07-11T14:33:59.263Z,3.53
2018-07-11T14:36:38.825Z,3.33
2018-07-11T14:39:21.420Z,4.07
2018-07-11T14:42:00.692Z,3.60
2018-07-11T14:44:39.831Z,4.10
2018-07-11T14:47:22.840Z,3.90
2018-07-11T14:50:01.999Z,4.00
2018-07-11T14:52:41.843Z,3.80
2018-07-11T14:55:20.550Z,3.80
2018-07-11T14:57:56.983Z,3.60
2018-07-11T15:00:37.526Z,3.47
2018-07-11T15:03:16.701Z,3.67
2018-07-11T15:05:57.484Z,4.57
2018-07-11T15:08:37.459Z,4.00
2018-07-11T15:11:17.866Z,3.93
2018-07-11T15:14:03.021Z,3.97
2018-07-11T15:16:43.526Z,4.03
2018-07-11T15:19:19.900Z,3.50
2018-07-11T15:22:03.958Z,3.50
2018-07-11T15:24:42.876Z,3.27
2018-07-11T15:27:19.380Z,3.67
2018-07-11T15:29:58.602Z,4.17
2018-07-11T15:32:34.829Z,3.90
2018-07-11T15:35:11.045Z,4.07
2018-07-11T15:37:48.431Z,3.83
2018-07-11T15:40:28.218Z,4.03
2018-07-11T15:43:08.856Z,4.23
2018-07-11T15:45:47.893Z,4.67
2018-07-11T15:48:28.399Z,3.53
2018-07-11T15:51:08.808Z,3.13
2018-07-11T15:53:48.688Z,3.27
2018-07-11T15:56:28.033Z,2.70
2018-07-11T15:59:09.948Z,2.50
2018-07-11T16:01:56.378Z,2.20
2018-07-11T16:04:40.981Z,2.43
2018-07-11T16:07:20.058Z,2.30
2018-07-11T16:09:59.261Z,2.50
2018-07-11T16:12:35.666Z,2.20
2018-07-11T16:15:11.751Z,2.30
2018-07-11T16:17:51.578Z,2.20
2018-07-11T16:20:30.156Z,2.30
2018-07-11T16:23:08.506Z,2.70
2018-07-11T16:25:46.734Z,3.60
2018-07-11T16:28:22.895Z,2.80
2018-07-11T16:30:59.229Z,3.00
2018-07-11T16:33:36.537Z,2.40
2018-07-11T16:36:15.089Z,2.80
2018-07-11T16:38:55.488Z,2.60
2018-07-11T16:41:38.832Z,3.30
2018-07-11T16:44:17.105Z,2.53
2018-07-11T16:46:56.060Z,2.53
2018-07-11T16:49:35.939Z,2.63
2018-07-11T16:52:15.062Z,2.97
2018-07-11T16:54:51.859Z,2.90
2018-07-11T17:00:15.641Z,2.92
2018-07-11T17:03:04.860Z,2.40
2018-07-11T17:06:17.362Z,2.43
2018-07-11T17:08:56.610Z,2.23
2018-07-11T17:11:35.617Z,2.50
2018-07-11T17:14:12.156Z,2.43
2018-07-11T17:16:56.626Z,2.20
2018-07-11T17:19:43.832Z,2.50
2018-07-11T17:22:27.014Z,2.90
2018-07-11T17:25:07.500Z,2.60
2018-07-11T17:27:43.418Z,2.73
2018-07-11T17:30:21.661Z,2.80
2018-07-11T17:33:00.588Z,2.70
2018-07-11T17:35:46.857Z,2.50
2018-07-11T17:38:28.373Z,2.60
2018-07-11T17:41:05.442Z,2.50
2018-07-11T17:43:44.124Z,2.90
2018-07-11T17:46:24.439Z,2.90
2018-07-11T17:49:09.453Z,3.03
2018-07-11T17:51:48.626Z,2.90
2018-07-11T17:54:34.841Z,2.90
2018-07-11T17:57:16.045Z,2.67
2018-07-11T18:00:01.270Z,2.67
2018-07-11T18:02:50.130Z,2.83
2018-07-11T18:05:35.415Z,2.90
2018-07-11T18:08:12.818Z,3.93
2018-07-11T18:10:51.103Z,2.80
2018-07-11T18:13:28.621Z,3.47
2018-07-11T18:18:16.280Z,3.10
2018-07-11T18:21:04.800Z,3.03
2018-07-11T18:23:56.472Z,2.93
2018-07-11T18:26:47.793Z,2.87
2018-07-11T18:29:34.151Z,9.33
2018-07-11T18:33:10.083Z,3.60
2018-07-11T18:35:58.208Z,3.23
2018-07-11T18:39:50.480Z,3.30
2018-07-11T18:42:37.929Z,2.93
2018-07-11T18:47:35.806Z,3.37
2018-07-11T18:50:23.684Z,3.20
2018-07-11T18:53:08.187Z,3.03
2018-07-11T18:55:54.559Z,3.57
2018-07-11T18:58:48.247Z,3.00
2018-07-11T19:02:36.606Z,3.27
2018-07-11T19:05:18.897Z,3.27
2018-07-11T19:08:11.882Z,3.30
2018-07-11T19:10:59.022Z,3.23
2018-07-11T19:13:40.285Z,3.10
2018-07-11T19:16:50.872Z,2.80
2018-07-11T19:19:37.917Z,3.40
2018-07-11T19:22:27.871Z,3.10
2018-07-11T19:25:49.872Z,3.90
2018-07-11T19:28:35.966Z,2.97
2018-07-11T19:31:21.681Z,3.10
2018-07-11T19:35:07.610Z,3.30
2018-07-11T19:37:56.037Z,2.97
2018-07-11T19:40:46.386Z,3.60
2018-07-11T19:47:41.747Z,3.13
2018-07-11T19:50:35.138Z,3.33
2018-07-11T19:53:18.365Z,3.90
2018-07-11T19:57:02.167Z,3.20
2018-07-11T19:59:38.414Z,3.70
2018-07-11T20:02:15.152Z,3.20
2018-07-11T20:04:52.400Z,3.80
2018-07-11T20:07:28.687Z,3.67
2018-07-11T20:10:04.799Z,3.87
2018-07-11T20:12:42.652Z,3.60
2018-07-11T20:15:22.787Z,3.40
2018-07-11T20:18:01.624Z,3.40
2018-07-11T20:20:40.826Z,3.73
2018-07-11T20:23:20.935Z,3.50
2018-07-11T20:26:00.035Z,3.90
2018-07-11T20:28:36.392Z,4.00
2018-07-11T20:31:13.873Z,3.60
2018-07-11T20:33:50.306Z,4.60
2018-07-11T20:36:26.509Z,3.27
2018-07-11T20:39:06.121Z,4.17
2018-07-11T20:41:45.142Z,3.30
2018-07-11T20:44:23.798Z,3.97
2018-07-11T20:47:02.602Z,4.17
2018-07-11T20:49:39.663Z,4.37
2018-07-11T20:52:15.938Z,3.83
2018-07-11T20:54:52.170Z,3.67
2018-07-11T20:57:28.395Z,3.53
2018-07-11T21:00:15.610Z,3.57
2018-07-11T21:03:03.230Z,4.30
2018-07-11T21:07:55.266Z,3.93
2018-07-11T21:11:39.908Z,3.80
2018-07-11T21:16:30.811Z,4.57
2018-07-11T21:19:08.910Z,4.27
2018-07-11T21:21:45.726Z,4.70
2018-07-11T21:24:22.015Z,4.57
2018-07-11T21:26:58.336Z,5.13
2018-07-11T21:29:35.149Z,4.50
2018-07-11T21:32:11.808Z,4.37
2018-07-11T21:34:47.947Z,4.47
2018-07-11T21:37:24.715Z,4.70
2018-07-11T21:40:00.674Z,4.77
2018-07-11T21:42:37.743Z,4.43
2018-07-11T21:45:13.937Z,4.20
2018-07-11T21:47:50.118Z,4.30
2018-07-11T21:50:26.462Z,3.93
2018-07-11T21:53:02.574Z,4.23
2018-07-11T21:55:38.709Z,3.80
2018-07-11T21:58:15.158Z,4.70
2018-07-11T22:00:51.548Z,3.47
2018-07-11T22:03:28.131Z,3.80
2018-07-11T22:06:04.207Z,4.50
2018-07-11T22:08:40.457Z,5.33
2018-07-11T22:11:16.323Z,4.43
2018-07-11T22:13:52.645Z,5.47
2018-07-11T22:16:29.997Z,5.53
2018-07-11T22:19:09.913Z,6.00
2018-07-11T22:21:44.706Z,5.47
2018-07-11T22:24:19.062Z,5.50
2018-07-11T22:26:53.578Z,5.83
2018-07-11T22:29:28.141Z,4.43
2018-07-11T22:32:03.050Z,3.80
2018-07-11T22:34:37.476Z,4.10
2018-07-11T22:37:12.056Z,3.50
2018-07-11T22:39:46.813Z,3.87
2018-07-11T22:42:21.054Z,4.47
2018-07-11T22:44:55.476Z,4.30
2018-07-11T22:47:29.815Z,4.00
2018-07-11T22:50:04.243Z,3.97
2018-07-11T22:52:38.773Z,4.20
2018-07-11T22:55:13.225Z,4.17
2018-07-11T22:57:47.642Z,3.80
2018-07-11T23:00:21.820Z,3.47
2018-07-11T23:02:56.120Z,3.90
2018-07-11T23:05:30.427Z,3.90
2018-07-11T23:08:04.733Z,3.70
2018-07-11T23:10:39.207Z,4.20
2018-07-11T23:13:13.675Z,4.23
2018-07-11T23:15:48.860Z,4.30
2018-07-11T23:18:23.415Z,4.40
2018-07-11T23:20:57.795Z,4.20
2018-07-11T23:23:32.246Z,4.10
2018-07-11T23:26:06.580Z,4.80
2018-07-11T23:28:41.119Z,4.20
2018-07-11T23:31:15.459Z,3.83
2018-07-11T23:33:49.778Z,4.43
2018-07-11T23:36:24.288Z,4.70
2018-07-11T23:38:58.961Z,4.70
2018-07-11T23:41:33.321Z,4.40
2018-07-11T23:44:07.904Z,4.50
2018-07-11T23:46:42.835Z,4.27
2018-07-11T23:49:17.168Z,5.07
2018-07-11T23:51:51.281Z,4.30
2018-07-11T23:54:25.572Z,5.13
2018-07-11T23:57:01.009Z,4.70
2018-07-11T23:59:35.210Z,4.17
